sensor_id;sensor_type;location;lat;lon;timestamp;P1;durP1;ratioP1;P2;durP2;ratioP2
31724;SDS011;18306;40.960;14.836;2023-04-06T00:01:07;7.53;;;4.95;;
31724;SDS011;18306;40.960;14.836;2023-04-06T00:03:34;11.52;;;4.90;;
31724;SDS011;18306;40.960;14.836;2023-04-06T00:06:01;7.05;;;4.45;;
31724;SDS011;18306;40.960;14.836;2023-04-06T00:08:29;8.00;;;4.47;;
31724;SDS011;18306;40.960;14.836;2023-04-06T00:10:56;7.05;;;4.30;;
31724;SDS011;18306;40.960;14.836;2023-04-06T00:13:23;7.63;;;4.75;;
31724;SDS011;18306;40.960;14.836;2023-04-06T00:15:51;4.90;;;3.70;;
31724;SDS011;18306;40.960;14.836;2023-04-06T00:18:18;7.75;;;4.20;;
31724;SDS011;18306;40.960;14.836;2023-04-06T00:20:45;9.07;;;4.10;;
31724;SDS011;18306;40.960;14.836;2023-04-06T00:23:12;4.55;;;3.20;;
31724;SDS011;18306;40.960;14.836;2023-04-06T00:25:39;5.60;;;3.83;;
31724;SDS011;18306;40.960;14.836;2023-04-06T00:28:06;5.93;;;3.63;;
31724;SDS011;18306;40.960;14.836;2023-04-06T00:30:34;5.63;;;3.92;;
31724;SDS011;18306;40.960;14.836;2023-04-06T00:33:01;6.65;;;3.85;;
31724;SDS011;18306;40.960;14.836;2023-04-06T00:35:28;6.07;;;3.08;;
31724;SDS011;18306;40.960;14.836;2023-04-06T00:37:55;6.22;;;3.17;;
31724;SDS011;18306;40.960;14.836;2023-04-06T00:40:22;10.80;;;3.75;;
31724;SDS011;18306;40.960;14.836;2023-04-06T00:42:50;3.95;;;3.15;;
31724;SDS011;18306;40.960;14.836;2023-04-06T00:45:16;6.57;;;3.03;;
31724;SDS011;18306;40.960;14.836;2023-04-06T00:47:44;6.70;;;3.10;;
31724;SDS011;18306;40.960;14.836;2023-04-06T00:50:11;6.38;;;3.50;;
31724;SDS011;18306;40.960;14.836;2023-04-06T00:52:38;8.40;;;3.78;;
31724;SDS011;18306;40.960;14.836;2023-04-06T00:55:07;3.83;;;2.85;;
31724;SDS011;18306;40.960;14.836;2023-04-06T00:57:40;5.32;;;3.30;;
31724;SDS011;18306;40.960;14.836;2023-04-06T01:00:07;6.53;;;3.35;;
31724;SDS011;18306;40.960;14.836;2023-04-06T01:02:35;9.07;;;3.28;;
31724;SDS011;18306;40.960;14.836;2023-04-06T01:05:03;6.97;;;3.47;;
31724;SDS011;18306;40.960;14.836;2023-04-06T01:07:39;5.93;;;3.15;;
31724;SDS011;18306;40.960;14.836;2023-04-06T01:10:21;6.45;;;3.28;;
31724;SDS011;18306;40.960;14.836;2023-04-06T01:12:50;5.50;;;3.65;;
31724;SDS011;18306;40.960;14.836;2023-04-06T01:15:28;8.13;;;3.30;;
31724;SDS011;18306;40.960;14.836;2023-04-06T01:17:56;6.85;;;3.75;;
31724;SDS011;18306;40.960;14.836;2023-04-06T01:20:23;6.45;;;3.42;;
31724;SDS011;18306;40.960;14.836;2023-04-06T01:22:51;10.68;;;6.28;;
31724;SDS011;18306;40.960;14.836;2023-04-06T01:25:21;5.85;;;2.95;;
31724;SDS011;18306;40.960;14.836;2023-04-06T01:28:02;9.57;;;3.63;;
31724;SDS011;18306;40.960;14.836;2023-04-06T01:30:58;4.20;;;2.95;;
31724;SDS011;18306;40.960;14.836;2023-04-06T01:33:45;6.13;;;3.05;;
31724;SDS011;18306;40.960;14.836;2023-04-06T01:36:19;7.00;;;3.60;;
31724;SDS011;18306;40.960;14.836;2023-04-06T01:38:53;5.85;;;3.47;;
31724;SDS011;18306;40.960;14.836;2023-04-06T01:41:26;10.27;;;3.17;;
31724;SDS011;18306;40.960;14.836;2023-04-06T01:43:54;5.50;;;2.95;;
31724;SDS011;18306;40.960;14.836;2023-04-06T01:46:25;9.52;;;2.90;;
31724;SDS011;18306;40.960;14.836;2023-04-06T01:48:53;4.93;;;2.75;;
31724;SDS011;18306;40.960;14.836;2023-04-06T01:51:48;5.07;;;2.78;;
31724;SDS011;18306;40.960;14.836;2023-04-06T01:54:15;4.55;;;2.72;;
31724;SDS011;18306;40.960;14.836;2023-04-06T01:57:10;6.15;;;3.50;;
31724;SDS011;18306;40.960;14.836;2023-04-06T01:59:48;3.40;;;2.55;;
31724;SDS011;18306;40.960;14.836;2023-04-06T02:02:30;10.95;;;3.40;;
31724;SDS011;18306;40.960;14.836;2023-04-06T02:05:07;5.95;;;3.47;;
31724;SDS011;18306;40.960;14.836;2023-04-06T02:07:44;10.60;;;4.38;;
31724;SDS011;18306;40.960;14.836;2023-04-06T02:10:23;8.13;;;5.32;;
31724;SDS011;18306;40.960;14.836;2023-04-06T02:13:04;7.93;;;4.57;;
31724;SDS011;18306;40.960;14.836;2023-04-06T02:15:45;11.30;;;4.97;;
31724;SDS011;18306;40.960;14.836;2023-04-06T02:18:14;7.05;;;4.93;;
31724;SDS011;18306;40.960;14.836;2023-04-06T02:20:43;6.63;;;4.47;;
31724;SDS011;18306;40.960;14.836;2023-04-06T02:23:13;10.65;;;4.70;;
31724;SDS011;18306;40.960;14.836;2023-04-06T02:25:40;11.30;;;6.05;;
31724;SDS011;18306;40.960;14.836;2023-04-06T02:28:07;12.50;;;5.82;;
31724;SDS011;18306;40.960;14.836;2023-04-06T02:30:34;11.57;;;4.90;;
31724;SDS011;18306;40.960;14.836;2023-04-06T02:33:02;9.38;;;5.10;;
31724;SDS011;18306;40.960;14.836;2023-04-06T02:35:37;9.48;;;5.38;;
31724;SDS011;18306;40.960;14.836;2023-04-06T02:38:04;11.90;;;5.57;;
31724;SDS011;18306;40.960;14.836;2023-04-06T02:40:31;12.18;;;6.55;;
31724;SDS011;18306;40.960;14.836;2023-04-06T02:43:06;11.25;;;5.97;;
31724;SDS011;18306;40.960;14.836;2023-04-06T02:45:33;20.48;;;8.07;;
31724;SDS011;18306;40.960;14.836;2023-04-06T02:48:02;17.63;;;6.93;;
31724;SDS011;18306;40.960;14.836;2023-04-06T02:50:31;14.82;;;7.10;;
31724;SDS011;18306;40.960;14.836;2023-04-06T02:53:02;15.70;;;5.53;;
31724;SDS011;18306;40.960;14.836;2023-04-06T02:55:29;16.60;;;7.00;;
31724;SDS011;18306;40.960;14.836;2023-04-06T02:57:56;14.27;;;6.40;;
31724;SDS011;18306;40.960;14.836;2023-04-06T03:00:28;13.18;;;6.03;;
31724;SDS011;18306;40.960;14.836;2023-04-06T03:02:56;8.40;;;5.32;;
31724;SDS011;18306;40.960;14.836;2023-04-06T03:05:24;6.95;;;4.40;;
31724;SDS011;18306;40.960;14.836;2023-04-06T03:07:51;14.27;;;5.10;;
31724;SDS011;18306;40.960;14.836;2023-04-06T03:10:37;11.52;;;4.43;;
31724;SDS011;18306;40.960;14.836;2023-04-06T03:13:04;13.20;;;5.80;;
31724;SDS011;18306;40.960;14.836;2023-04-06T03:15:43;6.07;;;3.78;;
31724;SDS011;18306;40.960;14.836;2023-04-06T03:18:15;8.10;;;4.32;;
31724;SDS011;18306;40.960;14.836;2023-04-06T03:20:46;10.65;;;4.88;;
31724;SDS011;18306;40.960;14.836;2023-04-06T03:23:15;10.98;;;4.47;;
31724;SDS011;18306;40.960;14.836;2023-04-06T03:25:44;12.13;;;5.90;;
31724;SDS011;18306;40.960;14.836;2023-04-06T03:28:15;13.02;;;5.90;;
31724;SDS011;18306;40.960;14.836;2023-04-06T03:30:49;15.90;;;6.82;;
31724;SDS011;18306;40.960;14.836;2023-04-06T03:33:23;11.20;;;5.03;;
31724;SDS011;18306;40.960;14.836;2023-04-06T03:35:54;9.23;;;5.38;;
31724;SDS011;18306;40.960;14.836;2023-04-06T03:38:24;14.52;;;5.03;;
31724;SDS011;18306;40.960;14.836;2023-04-06T03:40:51;10.55;;;4.95;;
31724;SDS011;18306;40.960;14.836;2023-04-06T03:43:23;9.15;;;5.05;;
31724;SDS011;18306;40.960;14.836;2023-04-06T03:45:50;10.90;;;4.30;;
31724;SDS011;18306;40.960;14.836;2023-04-06T03:48:17;14.25;;;4.90;;
31724;SDS011;18306;40.960;14.836;2023-04-06T03:50:44;10.18;;;4.18;;
31724;SDS011;18306;40.960;14.836;2023-04-06T03:53:11;9.48;;;4.53;;
31724;SDS011;18306;40.960;14.836;2023-04-06T03:55:38;9.45;;;4.57;;
31724;SDS011;18306;40.960;14.836;2023-04-06T03:58:05;9.20;;;3.83;;
31724;SDS011;18306;40.960;14.836;2023-04-06T04:00:32;6.18;;;3.35;;
31724;SDS011;18306;40.960;14.836;2023-04-06T04:02:59;11.05;;;4.30;;
31724;SDS011;18306;40.960;14.836;2023-04-06T04:05:28;5.35;;;3.50;;
31724;SDS011;18306;40.960;14.836;2023-04-06T04:07:55;11.75;;;4.15;;
31724;SDS011;18306;40.960;14.836;2023-04-06T04:10:26;5.18;;;3.30;;
31724;SDS011;18306;40.960;14.836;2023-04-06T04:12:53;12.02;;;3.97;;
31724;SDS011;18306;40.960;14.836;2023-04-06T04:15:20;7.40;;;4.00;;
31724;SDS011;18306;40.960;14.836;2023-04-06T04:17:47;5.03;;;3.47;;
31724;SDS011;18306;40.960;14.836;2023-04-06T04:20:15;7.20;;;3.80;;
31724;SDS011;18306;40.960;14.836;2023-04-06T04:22:42;5.75;;;3.65;;
31724;SDS011;18306;40.960;14.836;2023-04-06T04:25:10;6.95;;;4.28;;
31724;SDS011;18306;40.960;14.836;2023-04-06T04:27:45;10.25;;;3.85;;
31724;SDS011;18306;40.960;14.836;2023-04-06T04:30:12;5.95;;;4.00;;
31724;SDS011;18306;40.960;14.836;2023-04-06T04:32:39;7.10;;;4.35;;
31724;SDS011;18306;40.960;14.836;2023-04-06T04:35:09;14.02;;;5.22;;
31724;SDS011;18306;40.960;14.836;2023-04-06T04:37:40;10.73;;;5.40;;
31724;SDS011;18306;40.960;14.836;2023-04-06T04:40:09;10.88;;;4.88;;
31724;SDS011;18306;40.960;14.836;2023-04-06T04:43:06;10.25;;;4.70;;
31724;SDS011;18306;40.960;14.836;2023-04-06T04:45:34;7.03;;;4.70;;
31724;SDS011;18306;40.960;14.836;2023-04-06T04:48:12;7.80;;;4.75;;
31724;SDS011;18306;40.960;14.836;2023-04-06T04:51:05;11.55;;;5.90;;
31724;SDS011;18306;40.960;14.836;2023-04-06T04:53:53;8.68;;;5.57;;
31724;SDS011;18306;40.960;14.836;2023-04-06T04:56:24;9.30;;;5.40;;
31724;SDS011;18306;40.960;14.836;2023-04-06T04:58:57;9.10;;;4.97;;
31724;SDS011;18306;40.960;14.836;2023-04-06T05:01:26;22.63;;;7.88;;
31724;SDS011;18306;40.960;14.836;2023-04-06T05:03:54;13.70;;;7.95;;
31724;SDS011;18306;40.960;14.836;2023-04-06T05:06:21;14.35;;;6.90;;
31724;SDS011;18306;40.960;14.836;2023-04-06T05:08:50;12.30;;;6.32;;
31724;SDS011;18306;40.960;14.836;2023-04-06T05:11:17;11.73;;;6.60;;
31724;SDS011;18306;40.960;14.836;2023-04-06T05:13:51;10.35;;;5.90;;
31724;SDS011;18306;40.960;14.836;2023-04-06T05:16:22;14.27;;;5.93;;
31724;SDS011;18306;40.960;14.836;2023-04-06T05:18:50;9.10;;;5.22;;
31724;SDS011;18306;40.960;14.836;2023-04-06T05:21:18;10.55;;;4.97;;
31724;SDS011;18306;40.960;14.836;2023-04-06T05:23:56;10.95;;;4.75;;
31724;SDS011;18306;40.960;14.836;2023-04-06T05:26:24;8.18;;;4.60;;
31724;SDS011;18306;40.960;14.836;2023-04-06T05:28:55;9.90;;;5.93;;
31724;SDS011;18306;40.960;14.836;2023-04-06T05:31:23;8.75;;;4.75;;
31724;SDS011;18306;40.960;14.836;2023-04-06T05:33:51;9.52;;;5.65;;
31724;SDS011;18306;40.960;14.836;2023-04-06T05:36:29;12.13;;;5.65;;
31724;SDS011;18306;40.960;14.836;2023-04-06T05:39:02;11.65;;;5.63;;
31724;SDS011;18306;40.960;14.836;2023-04-06T05:41:35;13.95;;;6.57;;
31724;SDS011;18306;40.960;14.836;2023-04-06T05:44:02;17.83;;;7.68;;
31724;SDS011;18306;40.960;14.836;2023-04-06T05:46:30;11.88;;;6.22;;
31724;SDS011;18306;40.960;14.836;2023-04-06T05:48:59;11.35;;;6.28;;
31724;SDS011;18306;40.960;14.836;2023-04-06T05:51:30;11.63;;;5.63;;
31724;SDS011;18306;40.960;14.836;2023-04-06T05:53:57;10.85;;;6.70;;
31724;SDS011;18306;40.960;14.836;2023-04-06T05:56:26;16.13;;;8.25;;
31724;SDS011;18306;40.960;14.836;2023-04-06T05:58:53;12.40;;;7.00;;
31724;SDS011;18306;40.960;14.836;2023-04-06T06:01:26;13.23;;;6.53;;
31724;SDS011;18306;40.960;14.836;2023-04-06T06:03:54;11.45;;;6.43;;
31724;SDS011;18306;40.960;14.836;2023-04-06T06:06:24;9.13;;;5.60;;
31724;SDS011;18306;40.960;14.836;2023-04-06T06:09:16;9.32;;;5.95;;
31724;SDS011;18306;40.960;14.836;2023-04-06T06:11:57;11.30;;;5.25;;
31724;SDS011;18306;40.960;14.836;2023-04-06T06:14:26;10.20;;;4.55;;
31724;SDS011;18306;40.960;14.836;2023-04-06T06:16:54;11.57;;;5.10;;
31724;SDS011;18306;40.960;14.836;2023-04-06T06:19:22;9.27;;;4.65;;
31724;SDS011;18306;40.960;14.836;2023-04-06T06:21:52;10.18;;;4.78;;
31724;SDS011;18306;40.960;14.836;2023-04-06T06:24:19;6.05;;;4.05;;
31724;SDS011;18306;40.960;14.836;2023-04-06T06:26:47;6.93;;;4.10;;
31724;SDS011;18306;40.960;14.836;2023-04-06T06:29:17;7.10;;;3.92;;
31724;SDS011;18306;40.960;14.836;2023-04-06T06:31:44;6.95;;;3.70;;
31724;SDS011;18306;40.960;14.836;2023-04-06T06:34:11;7.88;;;4.32;;
31724;SDS011;18306;40.960;14.836;2023-04-06T06:36:39;6.15;;;4.57;;
31724;SDS011;18306;40.960;14.836;2023-04-06T06:39:09;10.35;;;4.35;;
31724;SDS011;18306;40.960;14.836;2023-04-06T06:41:37;7.57;;;4.97;;
31724;SDS011;18306;40.960;14.836;2023-04-06T06:44:05;8.75;;;4.50;;
31724;SDS011;18306;40.960;14.836;2023-04-06T06:46:37;11.50;;;4.57;;
31724;SDS011;18306;40.960;14.836;2023-04-06T06:49:06;9.38;;;4.07;;
31724;SDS011;18306;40.960;14.836;2023-04-06T06:51:33;5.50;;;4.10;;
31724;SDS011;18306;40.960;14.836;2023-04-06T06:54:01;8.52;;;3.67;;
31724;SDS011;18306;40.960;14.836;2023-04-06T06:56:28;7.70;;;4.05;;
31724;SDS011;18306;40.960;14.836;2023-04-06T06:58:59;8.35;;;3.47;;
31724;SDS011;18306;40.960;14.836;2023-04-06T07:01:30;10.27;;;3.90;;
31724;SDS011;18306;40.960;14.836;2023-04-06T07:04:02;6.65;;;3.78;;
31724;SDS011;18306;40.960;14.836;2023-04-06T07:06:29;6.35;;;3.00;;
31724;SDS011;18306;40.960;14.836;2023-04-06T07:08:56;6.50;;;3.63;;
31724;SDS011;18306;40.960;14.836;2023-04-06T07:11:23;6.65;;;3.20;;
31724;SDS011;18306;40.960;14.836;2023-04-06T07:13:51;6.88;;;3.53;;
31724;SDS011;18306;40.960;14.836;2023-04-06T07:16:18;13.02;;;4.70;;
31724;SDS011;18306;40.960;14.836;2023-04-06T07:18:45;6.03;;;3.03;;
31724;SDS011;18306;40.960;14.836;2023-04-06T07:21:12;3.78;;;3.00;;
31724;SDS011;18306;40.960;14.836;2023-04-06T07:23:40;4.00;;;2.65;;
31724;SDS011;18306;40.960;14.836;2023-04-06T07:26:07;3.10;;;2.25;;
31724;SDS011;18306;40.960;14.836;2023-04-06T07:28:34;6.68;;;3.95;;
31724;SDS011;18306;40.960;14.836;2023-04-06T07:31:02;5.20;;;2.97;;
31724;SDS011;18306;40.960;14.836;2023-04-06T07:33:30;8.05;;;3.58;;
31724;SDS011;18306;40.960;14.836;2023-04-06T07:35:57;6.90;;;2.47;;
31724;SDS011;18306;40.960;14.836;2023-04-06T07:38:25;3.92;;;2.65;;
31724;SDS011;18306;40.960;14.836;2023-04-06T07:40:52;4.22;;;2.80;;
31724;SDS011;18306;40.960;14.836;2023-04-06T07:43:19;6.93;;;3.15;;
31724;SDS011;18306;40.960;14.836;2023-04-06T07:45:46;6.03;;;3.45;;
31724;SDS011;18306;40.960;14.836;2023-04-06T07:48:16;7.25;;;3.30;;
31724;SDS011;18306;40.960;14.836;2023-04-06T07:50:44;4.43;;;2.45;;
31724;SDS011;18306;40.960;14.836;2023-04-06T07:53:11;7.85;;;3.55;;
31724;SDS011;18306;40.960;14.836;2023-04-06T07:55:39;6.20;;;2.97;;
31724;SDS011;18306;40.960;14.836;2023-04-06T07:58:07;4.15;;;2.40;;
31724;SDS011;18306;40.960;14.836;2023-04-06T08:00:34;3.97;;;2.10;;
31724;SDS011;18306;40.960;14.836;2023-04-06T08:03:01;5.60;;;3.00;;
31724;SDS011;18306;40.960;14.836;2023-04-06T08:05:28;4.32;;;2.92;;
31724;SDS011;18306;40.960;14.836;2023-04-06T08:07:55;5.10;;;2.83;;
31724;SDS011;18306;40.960;14.836;2023-04-06T08:10:22;4.78;;;2.13;;
31724;SDS011;18306;40.960;14.836;2023-04-06T08:12:49;5.72;;;3.13;;
31724;SDS011;18306;40.960;14.836;2023-04-06T08:15:16;4.55;;;2.40;;
31724;SDS011;18306;40.960;14.836;2023-04-06T08:17:47;4.03;;;2.85;;
31724;SDS011;18306;40.960;14.836;2023-04-06T08:20:14;5.75;;;2.92;;
31724;SDS011;18306;40.960;14.836;2023-04-06T08:22:41;4.63;;;2.28;;
31724;SDS011;18306;40.960;14.836;2023-04-06T08:25:19;3.67;;;2.03;;
31724;SDS011;18306;40.960;14.836;2023-04-06T08:27:48;3.65;;;2.10;;
31724;SDS011;18306;40.960;14.836;2023-04-06T08:30:15;4.55;;;2.25;;
31724;SDS011;18306;40.960;14.836;2023-04-06T08:32:42;5.70;;;2.42;;
31724;SDS011;18306;40.960;14.836;2023-04-06T08:35:09;2.20;;;1.65;;
31724;SDS011;18306;40.960;14.836;2023-04-06T08:37:36;3.28;;;2.17;;
31724;SDS011;18306;40.960;14.836;2023-04-06T08:40:04;4.35;;;2.35;;
31724;SDS011;18306;40.960;14.836;2023-04-06T08:42:32;5.10;;;2.63;;
31724;SDS011;18306;40.960;14.836;2023-04-06T08:45:05;3.42;;;2.08;;
31724;SDS011;18306;40.960;14.836;2023-04-06T08:47:33;6.63;;;3.47;;
31724;SDS011;18306;40.960;14.836;2023-04-06T08:50:05;5.45;;;2.03;;
31724;SDS011;18306;40.960;14.836;2023-04-06T08:52:34;2.65;;;1.88;;
31724;SDS011;18306;40.960;14.836;2023-04-06T08:55:02;8.43;;;2.40;;
31724;SDS011;18306;40.960;14.836;2023-04-06T08:57:29;9.30;;;2.90;;
31724;SDS011;18306;40.960;14.836;2023-04-06T08:59:58;2.42;;;1.77;;
31724;SDS011;18306;40.960;14.836;2023-04-06T09:02:27;4.65;;;2.83;;
31724;SDS011;18306;40.960;14.836;2023-04-06T09:04:54;3.40;;;2.17;;
31724;SDS011;18306;40.960;14.836;2023-04-06T09:07:21;2.50;;;1.58;;
31724;SDS011;18306;40.960;14.836;2023-04-06T09:09:48;4.45;;;2.38;;
31724;SDS011;18306;40.960;14.836;2023-04-06T09:12:27;5.65;;;2.42;;
31724;SDS011;18306;40.960;14.836;2023-04-06T09:14:56;4.55;;;2.20;;
31724;SDS011;18306;40.960;14.836;2023-04-06T09:17:25;6.15;;;2.35;;
31724;SDS011;18306;40.960;14.836;2023-04-06T09:19:56;2.13;;;1.70;;
31724;SDS011;18306;40.960;14.836;2023-04-06T09:22:24;2.17;;;1.77;;
31724;SDS011;18306;40.960;14.836;2023-04-06T09:24:53;3.65;;;1.80;;
31724;SDS011;18306;40.960;14.836;2023-04-06T09:27:31;4.22;;;1.92;;
31724;SDS011;18306;40.960;14.836;2023-04-06T09:30:09;1.55;;;1.30;;
31724;SDS011;18306;40.960;14.836;2023-04-06T09:32:44;9.02;;;2.13;;
31724;SDS011;18306;40.960;14.836;2023-04-06T09:35:13;3.08;;;1.67;;
31724;SDS011;18306;40.960;14.836;2023-04-06T09:37:42;5.50;;;1.95;;
31724;SDS011;18306;40.960;14.836;2023-04-06T09:40:10;3.28;;;1.80;;
31724;SDS011;18306;40.960;14.836;2023-04-06T09:42:37;3.33;;;1.75;;
31724;SDS011;18306;40.960;14.836;2023-04-06T09:45:08;2.20;;;1.35;;
31724;SDS011;18306;40.960;14.836;2023-04-06T09:47:37;5.03;;;1.90;;
31724;SDS011;18306;40.960;14.836;2023-04-06T09:50:15;3.65;;;1.63;;
31724;SDS011;18306;40.960;14.836;2023-04-06T09:52:51;6.13;;;1.92;;
31724;SDS011;18306;40.960;14.836;2023-04-06T09:58:05;4.43;;;2.60;;
31724;SDS011;18306;40.960;14.836;2023-04-06T10:00:40;6.68;;;2.45;;
31724;SDS011;18306;40.960;14.836;2023-04-06T10:03:29;6.88;;;3.08;;
31724;SDS011;18306;40.960;14.836;2023-04-06T10:06:13;4.00;;;1.88;;
31724;SDS011;18306;40.960;14.836;2023-04-06T10:08:41;2.22;;;1.83;;
31724;SDS011;18306;40.960;14.836;2023-04-06T10:11:11;3.13;;;1.70;;
31724;SDS011;18306;40.960;14.836;2023-04-06T10:13:39;7.20;;;2.03;;
31724;SDS011;18306;40.960;14.836;2023-04-06T10:16:06;4.80;;;2.15;;
31724;SDS011;18306;40.960;14.836;2023-04-06T10:18:35;3.95;;;2.17;;
31724;SDS011;18306;40.960;14.836;2023-04-06T10:21:07;5.03;;;1.80;;
31724;SDS011;18306;40.960;14.836;2023-04-06T10:23:46;2.42;;;1.73;;
31724;SDS011;18306;40.960;14.836;2023-04-06T10:26:16;6.65;;;2.25;;
31724;SDS011;18306;40.960;14.836;2023-04-06T10:28:48;5.68;;;2.30;;
31724;SDS011;18306;40.960;14.836;2023-04-06T10:31:26;2.33;;;1.70;;
31724;SDS011;18306;40.960;14.836;2023-04-06T10:34:04;2.22;;;1.70;;
31724;SDS011;18306;40.960;14.836;2023-04-06T10:36:32;2.42;;;1.52;;
31724;SDS011;18306;40.960;14.836;2023-04-06T10:39:04;1.92;;;1.42;;
31724;SDS011;18306;40.960;14.836;2023-04-06T10:41:42;2.28;;;1.50;;
31724;SDS011;18306;40.960;14.836;2023-04-06T10:44:20;3.45;;;1.83;;
31724;SDS011;18306;40.960;14.836;2023-04-06T10:46:53;1.85;;;0.88;;
31724;SDS011;18306;40.960;14.836;2023-04-06T10:49:25;5.78;;;1.55;;
31724;SDS011;18306;40.960;14.836;2023-04-06T10:51:56;2.97;;;1.63;;
31724;SDS011;18306;40.960;14.836;2023-04-06T10:54:26;3.30;;;1.65;;
31724;SDS011;18306;40.960;14.836;2023-04-06T10:56:54;9.13;;;2.30;;
31724;SDS011;18306;40.960;14.836;2023-04-06T10:59:22;3.72;;;1.48;;
31724;SDS011;18306;40.960;14.836;2023-04-06T11:01:53;3.92;;;1.98;;
31724;SDS011;18306;40.960;14.836;2023-04-06T11:04:21;4.60;;;2.33;;
31724;SDS011;18306;40.960;14.836;2023-04-06T11:06:49;6.13;;;1.70;;
31724;SDS011;18306;40.960;14.836;2023-04-06T11:09:26;3.90;;;1.85;;
31724;SDS011;18306;40.960;14.836;2023-04-06T11:11:55;3.70;;;1.50;;
31724;SDS011;18306;40.960;14.836;2023-04-06T11:14:23;1.98;;;1.17;;
31724;SDS011;18306;40.960;14.836;2023-04-06T11:16:53;5.93;;;3.33;;
31724;SDS011;18306;40.960;14.836;2023-04-06T11:19:20;4.05;;;2.17;;
31724;SDS011;18306;40.960;14.836;2023-04-06T11:21:48;2.28;;;1.38;;
31724;SDS011;18306;40.960;14.836;2023-04-06T11:24:33;2.95;;;1.77;;
31724;SDS011;18306;40.960;14.836;2023-04-06T11:27:00;5.38;;;1.83;;
31724;SDS011;18306;40.960;14.836;2023-04-06T11:29:28;4.10;;;1.48;;
31724;SDS011;18306;40.960;14.836;2023-04-06T11:31:58;3.47;;;1.92;;
31724;SDS011;18306;40.960;14.836;2023-04-06T11:34:28;3.20;;;1.80;;
31724;SDS011;18306;40.960;14.836;2023-04-06T11:37:02;6.53;;;2.38;;
31724;SDS011;18306;40.960;14.836;2023-04-06T11:39:40;6.68;;;2.08;;
31724;SDS011;18306;40.960;14.836;2023-04-06T11:42:28;3.95;;;1.33;;
31724;SDS011;18306;40.960;14.836;2023-04-06T11:44:57;3.30;;;2.05;;
31724;SDS011;18306;40.960;14.836;2023-04-06T11:47:43;1.52;;;1.30;;
31724;SDS011;18306;40.960;14.836;2023-04-06T11:50:11;10.57;;;2.63;;
31724;SDS011;18306;40.960;14.836;2023-04-06T11:52:40;6.00;;;2.13;;
31724;SDS011;18306;40.960;14.836;2023-04-06T11:55:14;2.92;;;1.42;;
31724;SDS011;18306;40.960;14.836;2023-04-06T11:57:43;2.58;;;1.88;;
31724;SDS011;18306;40.960;14.836;2023-04-06T12:00:11;2.50;;;1.23;;
31724;SDS011;18306;40.960;14.836;2023-04-06T12:02:38;3.00;;;2.03;;
31724;SDS011;18306;40.960;14.836;2023-04-06T12:05:06;6.60;;;3.55;;
31724;SDS011;18306;40.960;14.836;2023-04-06T12:07:38;1.45;;;1.35;;
31724;SDS011;18306;40.960;14.836;2023-04-06T12:10:06;8.23;;;3.72;;
31724;SDS011;18306;40.960;14.836;2023-04-06T12:12:34;2.45;;;1.33;;
31724;SDS011;18306;40.960;14.836;2023-04-06T12:15:01;4.10;;;1.75;;
31724;SDS011;18306;40.960;14.836;2023-04-06T12:17:28;1.55;;;1.23;;
31724;SDS011;18306;40.960;14.836;2023-04-06T12:19:55;3.17;;;1.58;;
31724;SDS011;18306;40.960;14.836;2023-04-06T12:22:23;2.90;;;1.98;;
31724;SDS011;18306;40.960;14.836;2023-04-06T12:24:50;2.35;;;1.35;;
31724;SDS011;18306;40.960;14.836;2023-04-06T12:27:17;2.42;;;1.80;;
31724;SDS011;18306;40.960;14.836;2023-04-06T12:29:49;2.88;;;1.15;;
31724;SDS011;18306;40.960;14.836;2023-04-06T12:32:17;4.43;;;1.85;;
31724;SDS011;18306;40.960;14.836;2023-04-06T12:34:44;1.58;;;1.30;;
31724;SDS011;18306;40.960;14.836;2023-04-06T12:37:12;1.92;;;1.30;;
31724;SDS011;18306;40.960;14.836;2023-04-06T12:39:39;3.03;;;1.38;;
31724;SDS011;18306;40.960;14.836;2023-04-06T12:42:07;1.20;;;0.88;;
31724;SDS011;18306;40.960;14.836;2023-04-06T12:44:36;2.15;;;1.38;;
31724;SDS011;18306;40.960;14.836;2023-04-06T12:47:05;3.70;;;1.30;;
31724;SDS011;18306;40.960;14.836;2023-04-06T12:49:33;2.60;;;1.38;;
31724;SDS011;18306;40.960;14.836;2023-04-06T12:52:05;2.30;;;1.02;;
31724;SDS011;18306;40.960;14.836;2023-04-06T12:54:32;3.35;;;2.05;;
31724;SDS011;18306;40.960;14.836;2023-04-06T12:56:59;12.65;;;6.72;;
31724;SDS011;18306;40.960;14.836;2023-04-06T12:59:27;5.57;;;2.88;;
31724;SDS011;18306;40.960;14.836;2023-04-06T13:01:57;2.17;;;1.35;;
31724;SDS011;18306;40.960;14.836;2023-04-06T13:04:24;6.93;;;3.40;;
31724;SDS011;18306;40.960;14.836;2023-04-06T13:06:52;7.15;;;3.72;;
31724;SDS011;18306;40.960;14.836;2023-04-06T13:09:19;6.57;;;3.63;;
31724;SDS011;18306;40.960;14.836;2023-04-06T13:11:46;5.70;;;3.63;;
31724;SDS011;18306;40.960;14.836;2023-04-06T13:14:13;3.15;;;2.08;;
31724;SDS011;18306;40.960;14.836;2023-04-06T13:16:40;2.20;;;1.23;;
31724;SDS011;18306;40.960;14.836;2023-04-06T13:19:08;3.67;;;1.63;;
31724;SDS011;18306;40.960;14.836;2023-04-06T13:21:37;1.83;;;1.50;;
31724;SDS011;18306;40.960;14.836;2023-04-06T13:24:08;3.40;;;1.77;;
31724;SDS011;18306;40.960;14.836;2023-04-06T13:26:35;6.57;;;2.28;;
31724;SDS011;18306;40.960;14.836;2023-04-06T13:29:02;2.05;;;1.13;;
31724;SDS011;18306;40.960;14.836;2023-04-06T13:31:29;2.88;;;1.55;;
31724;SDS011;18306;40.960;14.836;2023-04-06T13:33:56;3.53;;;1.77;;
31724;SDS011;18306;40.960;14.836;2023-04-06T13:36:23;3.50;;;1.67;;
31724;SDS011;18306;40.960;14.836;2023-04-06T13:38:51;2.60;;;1.45;;
31724;SDS011;18306;40.960;14.836;2023-04-06T13:41:21;3.88;;;2.40;;
31724;SDS011;18306;40.960;14.836;2023-04-06T13:43:51;2.72;;;1.40;;
31724;SDS011;18306;40.960;14.836;2023-04-06T13:46:23;4.68;;;1.50;;
31724;SDS011;18306;40.960;14.836;2023-04-06T13:49:01;3.72;;;1.92;;
31724;SDS011;18306;40.960;14.836;2023-04-06T13:51:32;6.97;;;2.10;;
31724;SDS011;18306;40.960;14.836;2023-04-06T13:54:05;7.63;;;2.08;;
31724;SDS011;18306;40.960;14.836;2023-04-06T13:56:35;2.17;;;2.00;;
31724;SDS011;18306;40.960;14.836;2023-04-06T13:59:08;1.63;;;1.20;;
31724;SDS011;18306;40.960;14.836;2023-04-06T14:01:43;3.03;;;1.58;;
31724;SDS011;18306;40.960;14.836;2023-04-06T14:04:10;2.50;;;1.67;;
31724;SDS011;18306;40.960;14.836;2023-04-06T14:06:37;6.70;;;3.13;;
31724;SDS011;18306;40.960;14.836;2023-04-06T14:09:04;2.28;;;1.70;;
31724;SDS011;18306;40.960;14.836;2023-04-06T14:11:31;3.20;;;1.67;;
31724;SDS011;18306;40.960;14.836;2023-04-06T14:13:59;2.67;;;1.92;;
31724;SDS011;18306;40.960;14.836;2023-04-06T14:16:26;6.32;;;1.20;;
31724;SDS011;18306;40.960;14.836;2023-04-06T14:18:53;5.03;;;2.33;;
31724;SDS011;18306;40.960;14.836;2023-04-06T14:21:21;3.38;;;1.85;;
31724;SDS011;18306;40.960;14.836;2023-04-06T14:23:48;5.72;;;2.83;;
31724;SDS011;18306;40.960;14.836;2023-04-06T14:26:15;2.00;;;1.58;;
31724;SDS011;18306;40.960;14.836;2023-04-06T14:28:42;3.90;;;1.73;;
31724;SDS011;18306;40.960;14.836;2023-04-06T14:31:10;1.98;;;1.27;;
31724;SDS011;18306;40.960;14.836;2023-04-06T14:33:39;2.03;;;1.38;;
31724;SDS011;18306;40.960;14.836;2023-04-06T14:36:06;1.17;;;0.88;;
31724;SDS011;18306;40.960;14.836;2023-04-06T14:38:34;4.30;;;1.02;;
31724;SDS011;18306;40.960;14.836;2023-04-06T14:41:01;10.98;;;1.80;;
31724;SDS011;18306;40.960;14.836;2023-04-06T14:43:29;4.68;;;1.30;;
31724;SDS011;18306;40.960;14.836;2023-04-06T14:45:59;6.47;;;2.80;;
31724;SDS011;18306;40.960;14.836;2023-04-06T14:48:27;7.65;;;3.08;;
31724;SDS011;18306;40.960;14.836;2023-04-06T14:50:55;3.25;;;1.45;;